createdAt,value
2023-03-30T00:01:50.831Z,8.41
2023-03-30T00:04:38.241Z,8.44
2023-03-30T00:07:25.476Z,8.46
2023-03-30T00:10:14.919Z,8.43
2023-03-30T00:13:00.904Z,8.36
2023-03-30T00:15:47.734Z,8.37
2023-03-30T00:18:37.441Z,8.34
2023-03-30T00:21:23.549Z,8.32
2023-03-30T00:24:09.844Z,8.35
2023-03-30T00:26:55.936Z,8.30
2023-03-30T00:29:42.542Z,8.28
2023-03-30T00:32:28.339Z,8.30
2023-03-30T00:35:15.171Z,8.29
2023-03-30T00:38:01.780Z,8.26
2023-03-30T00:40:56.490Z,8.23
2023-03-30T00:44:03.142Z,8.20
2023-03-30T00:46:49.152Z,8.14
2023-03-30T00:49:35.052Z,8.19
2023-03-30T00:52:24.975Z,8.16
2023-03-30T00:55:12.076Z,8.16
2023-03-30T00:57:58.218Z,8.16
2023-03-30T01:00:47.221Z,8.16
2023-03-30T01:03:55.623Z,8.09
2023-03-30T01:06:43.661Z,8.14
2023-03-30T01:09:30.026Z,8.09
2023-03-30T01:12:15.965Z,8.08
2023-03-30T01:15:03.074Z,8.07
2023-03-30T01:18:14.548Z,8.03
2023-03-30T01:21:24.000Z,8.01
2023-03-30T01:24:55.672Z,7.96
2023-03-30T01:28:07.325Z,7.91
2023-03-30T01:31:15.339Z,7.88
2023-03-30T01:34:32.094Z,7.86
2023-03-30T01:37:34.753Z,7.84
2023-03-30T01:40:32.343Z,7.81
2023-03-30T01:43:29.189Z,7.80
2023-03-30T01:46:34.894Z,7.80
2023-03-30T01:49:30.526Z,7.78
2023-03-30T01:52:31.889Z,7.75
2023-03-30T01:55:41.929Z,7.74
2023-03-30T01:58:33.897Z,7.73
2023-03-30T02:01:20.886Z,7.65
2023-03-30T02:04:09.734Z,7.65
2023-03-30T02:07:02.126Z,7.56
2023-03-30T02:09:50.417Z,7.50
2023-03-30T02:12:36.647Z,7.47
2023-03-30T02:15:44.116Z,7.44
2023-03-30T02:18:30.626Z,7.42
2023-03-30T02:21:17.534Z,7.39
2023-03-30T02:24:06.806Z,7.40
2023-03-30T02:26:54.485Z,7.40
2023-03-30T02:29:43.285Z,7.39
2023-03-30T02:32:34.084Z,7.34
2023-03-30T02:35:22.392Z,7.38
2023-03-30T02:38:14.289Z,7.39
2023-03-30T02:41:07.363Z,7.38
2023-03-30T02:43:59.144Z,7.38
2023-03-30T02:46:48.156Z,7.34
2023-03-30T02:49:49.284Z,7.35
2023-03-30T02:52:55.677Z,7.31
2023-03-30T02:56:13.287Z,7.29
2023-03-30T02:59:31.106Z,7.28
2023-03-30T03:02:22.308Z,7.27
2023-03-30T03:05:17.079Z,7.28
2023-03-30T03:08:18.997Z,7.24
2023-03-30T03:11:08.187Z,7.25
2023-03-30T03:13:55.653Z,7.24
2023-03-30T03:16:42.562Z,7.23
2023-03-30T03:19:37.632Z,7.22
2023-03-30T03:22:23.812Z,7.24
2023-03-30T03:25:11.804Z,7.21
2023-03-30T03:28:16.386Z,7.19
2023-03-30T03:31:27.488Z,7.12
2023-03-30T03:34:13.189Z,7.13
2023-03-30T03:37:33.277Z,7.13
2023-03-30T03:40:19.145Z,7.10
2023-03-30T03:43:04.822Z,7.12
2023-03-30T03:45:51.884Z,7.08
2023-03-30T03:48:39.467Z,7.00
2023-03-30T03:51:25.323Z,6.92
2023-03-30T03:54:11.106Z,6.85
2023-03-30T03:56:58.361Z,6.82
2023-03-30T03:59:45.414Z,6.80
2023-03-30T04:02:32.600Z,6.77
2023-03-30T04:05:18.672Z,6.72
2023-03-30T04:08:05.273Z,6.72
2023-03-30T04:10:51.068Z,6.67
2023-03-30T04:13:55.908Z,6.65
2023-03-30T04:16:58.092Z,6.62
2023-03-30T04:20:12.480Z,6.51
2023-03-30T04:23:22.515Z,6.51
2023-03-30T04:26:30.455Z,6.50
2023-03-30T04:29:41.212Z,6.44
2023-03-30T04:32:41.600Z,6.35
2023-03-30T04:35:46.697Z,6.34
2023-03-30T04:39:06.023Z,6.28
2023-03-30T04:42:14.451Z,6.19
2023-03-30T04:45:30.128Z,6.12
2023-03-30T04:48:48.396Z,6.06
2023-03-30T04:52:00.602Z,5.98
2023-03-30T04:55:19.043Z,5.90
2023-03-30T04:58:23.075Z,5.89
2023-03-30T05:01:31.729Z,5.77
2023-03-30T05:04:49.998Z,5.79
2023-03-30T05:07:38.405Z,5.73
2023-03-30T05:10:43.144Z,5.64
2023-03-30T05:14:02.402Z,5.59
2023-03-30T05:17:06.720Z,5.58
2023-03-30T05:20:14.519Z,5.57
2023-03-30T05:26:43.252Z,5.66
2023-03-30T05:29:41.459Z,5.69
2023-03-30T05:32:59.516Z,5.71
2023-03-30T05:36:03.769Z,5.70
2023-03-30T05:39:09.176Z,5.74
2023-03-30T05:42:15.138Z,5.79
2023-03-30T05:45:24.270Z,5.80
2023-03-30T05:48:27.224Z,5.89
2023-03-30T05:51:48.503Z,5.94
2023-03-30T05:54:49.480Z,6.00
2023-03-30T05:58:10.608Z,6.07
2023-03-30T06:01:14.568Z,6.15
2023-03-30T06:04:03.601Z,6.21
2023-03-30T06:06:50.135Z,6.26
2023-03-30T06:09:35.811Z,6.31
2023-03-30T06:12:28.848Z,6.42
2023-03-30T06:15:14.922Z,6.49
2023-03-30T06:18:05.235Z,6.52
2023-03-30T06:20:54.569Z,6.60
2023-03-30T06:23:43.469Z,6.65
2023-03-30T06:26:35.719Z,6.75
2023-03-30T06:29:21.367Z,6.87
2023-03-30T06:32:07.279Z,7.05
2023-03-30T06:35:16.344Z,7.20
2023-03-30T06:38:02.415Z,7.38
2023-03-30T06:40:49.552Z,7.53
2023-03-30T06:43:36.506Z,7.69
2023-03-30T06:46:44.831Z,7.85
2023-03-30T06:49:31.062Z,7.99
2023-03-30T06:52:49.073Z,8.08
2023-03-30T06:55:36.929Z,8.22
2023-03-30T06:58:23.757Z,8.33
2023-03-30T07:01:15.957Z,8.50
2023-03-30T07:04:22.166Z,8.69
2023-03-30T07:07:30.847Z,8.93
2023-03-30T07:10:16.798Z,9.09
2023-03-30T07:13:04.089Z,9.24
2023-03-30T07:15:52.494Z,9.42
2023-03-30T07:18:38.741Z,9.56
2023-03-30T07:21:24.787Z,9.70
2023-03-30T07:24:10.557Z,9.80
2023-03-30T07:26:56.575Z,9.90
2023-03-30T07:29:42.853Z,10.01
2023-03-30T07:32:28.796Z,10.10
2023-03-30T07:35:15.015Z,10.18
2023-03-30T07:38:03.905Z,10.21
2023-03-30T07:40:54.193Z,10.25
2023-03-30T07:43:42.404Z,10.34
2023-03-30T07:46:28.416Z,10.43
2023-03-30T07:49:15.317Z,10.52
2023-03-30T07:52:01.506Z,10.58
2023-03-30T07:55:09.136Z,10.64
2023-03-30T07:58:08.551Z,10.72
2023-03-30T08:00:54.949Z,10.86
2023-03-30T08:04:18.227Z,10.99
2023-03-30T08:07:09.881Z,11.08
2023-03-30T08:09:56.555Z,11.21
2023-03-30T08:12:42.483Z,11.36
2023-03-30T08:15:28.560Z,11.46
2023-03-30T08:18:15.095Z,11.56
2023-03-30T08:21:01.238Z,11.61
2023-03-30T08:23:47.074Z,11.62
2023-03-30T08:26:32.930Z,11.66
2023-03-30T08:29:18.894Z,11.67
2023-03-30T08:32:04.770Z,11.72
2023-03-30T08:34:50.510Z,11.80
2023-03-30T08:37:36.420Z,11.80
2023-03-30T08:40:23.238Z,11.84
2023-03-30T08:43:25.982Z,11.83
2023-03-30T08:46:19.124Z,11.89
2023-03-30T08:49:14.250Z,11.94
2023-03-30T08:52:03.859Z,12.01
2023-03-30T08:54:52.272Z,12.06
2023-03-30T08:58:12.821Z,12.17
2023-03-30T09:01:25.276Z,12.28
2023-03-30T09:04:33.925Z,12.41
2023-03-30T09:07:21.770Z,12.52
2023-03-30T09:10:15.455Z,12.58
2023-03-30T09:13:02.636Z,12.65
2023-03-30T09:15:54.640Z,12.70
2023-03-30T09:18:42.372Z,12.75
2023-03-30T09:21:30.042Z,12.81
2023-03-30T09:24:21.664Z,12.79
2023-03-30T09:27:20.503Z,12.89
2023-03-30T09:30:20.515Z,13.02
2023-03-30T09:33:13.232Z,13.13
2023-03-30T09:36:27.702Z,13.24
2023-03-30T09:39:18.428Z,13.36
2023-03-30T09:42:38.120Z,13.48
2023-03-30T09:45:33.248Z,13.60
2023-03-30T09:48:21.339Z,13.74
2023-03-30T09:51:36.811Z,13.92
2023-03-30T09:54:23.794Z,14.08
2023-03-30T09:57:28.448Z,14.20
2023-03-30T10:00:31.500Z,14.30
2023-03-30T10:03:23.301Z,14.37
2023-03-30T10:06:16.780Z,14.45
2023-03-30T10:09:06.291Z,14.53
2023-03-30T10:11:52.996Z,14.55
2023-03-30T10:14:38.791Z,14.63
2023-03-30T10:17:25.745Z,14.66
2023-03-30T10:20:37.549Z,14.73
2023-03-30T10:23:33.482Z,14.84
2023-03-30T10:26:20.658Z,14.96
2023-03-30T10:29:11.035Z,15.02
2023-03-30T10:32:43.248Z,15.11
2023-03-30T10:35:37.206Z,15.23
2023-03-30T10:38:23.681Z,15.35
2023-03-30T10:41:21.146Z,15.47
2023-03-30T10:44:24.297Z,15.59
2023-03-30T10:47:48.111Z,15.72
2023-03-30T10:50:52.189Z,15.95
2023-03-30T10:54:01.102Z,16.17
2023-03-30T10:56:52.597Z,16.39
2023-03-30T11:00:13.043Z,16.62
2023-03-30T11:02:59.021Z,16.83
2023-03-30T11:05:47.445Z,17.08
2023-03-30T11:08:37.825Z,17.37
2023-03-30T11:11:31.574Z,17.71
2023-03-30T11:14:26.176Z,18.06
2023-03-30T11:17:19.025Z,18.53
2023-03-30T11:20:19.201Z,19.26
2023-03-30T11:23:20.823Z,20.29
2023-03-30T11:26:21.608Z,21.57
2023-03-30T11:29:29.404Z,22.83
2023-03-30T11:32:46.800Z,23.98
2023-03-30T11:35:43.962Z,24.70
2023-03-30T11:38:39.492Z,24.90
2023-03-30T11:41:37.038Z,24.81
2023-03-30T11:44:22.918Z,24.72
2023-03-30T11:47:30.090Z,24.63
2023-03-30T11:50:32.502Z,25.09
2023-03-30T11:53:21.988Z,25.75
2023-03-30T11:56:36.330Z,26.35
2023-03-30T11:59:33.279Z,26.86
2023-03-30T12:02:31.245Z,27.43
2023-03-30T12:05:45.582Z,27.80
2023-03-30T12:08:43.967Z,28.12
2023-03-30T12:11:48.156Z,28.29
2023-03-30T12:14:43.161Z,27.70
2023-03-30T12:17:35.015Z,26.38
2023-03-30T12:20:37.535Z,25.05
2023-03-30T12:23:40.827Z,24.00
2023-03-30T12:26:37.370Z,23.13
2023-03-30T12:29:58.454Z,22.41
2023-03-30T12:32:31.543Z,22.23
2023-03-30T12:35:56.236Z,22.79
2023-03-30T12:38:43.581Z,23.71
2023-03-30T12:41:48.777Z,24.72
2023-03-30T12:44:59.183Z,25.13
2023-03-30T12:48:16.623Z,25.26
2023-03-30T12:51:48.066Z,25.33
2023-03-30T12:54:40.435Z,25.33
2023-03-30T12:57:44.445Z,25.09
2023-03-30T13:00:49.417Z,24.68
2023-03-30T13:04:02.540Z,24.06
2023-03-30T13:06:56.925Z,23.53
2023-03-30T13:10:00.526Z,23.07
2023-03-30T13:12:49.667Z,22.65
2023-03-30T13:15:46.329Z,22.22
2023-03-30T13:18:34.637Z,21.84
2023-03-30T13:21:25.456Z,21.51
2023-03-30T13:24:26.579Z,21.25
2023-03-30T13:27:18.330Z,21.13
2023-03-30T13:30:07.860Z,21.04
2023-03-30T13:32:59.742Z,21.00
2023-03-30T13:35:46.284Z,20.95
2023-03-30T13:39:07.031Z,20.87
2023-03-30T13:42:17.941Z,21.16
2023-03-30T13:45:28.058Z,21.60
2023-03-30T13:48:29.833Z,21.91
2023-03-30T13:51:19.933Z,22.00
2023-03-30T13:54:17.258Z,22.25
2023-03-30T13:57:16.630Z,22.39
2023-03-30T14:00:10.625Z,22.43
2023-03-30T14:02:56.696Z,22.84
2023-03-30T14:05:42.904Z,23.44
2023-03-30T14:08:30.397Z,24.11
2023-03-30T14:11:22.708Z,24.77
2023-03-30T14:14:16.354Z,25.31
2023-03-30T14:17:02.958Z,25.86
2023-03-30T14:20:15.798Z,26.24
2023-03-30T14:23:02.903Z,26.64
2023-03-30T14:26:03.746Z,27.12
2023-03-30T14:28:54.669Z,27.49
2023-03-30T14:31:42.332Z,27.71
2023-03-30T14:34:33.378Z,27.97
2023-03-30T14:37:21.538Z,28.09
2023-03-30T14:40:16.976Z,28.29
2023-03-30T14:43:04.008Z,28.38
2023-03-30T14:45:51.744Z,28.42
2023-03-30T14:48:43.105Z,28.24
2023-03-30T14:51:43.069Z,27.88
2023-03-30T14:54:29.977Z,26.86
2023-03-30T14:57:17.525Z,25.85
2023-03-30T15:00:31.658Z,24.85
2023-03-30T15:03:30.689Z,23.83
2023-03-30T15:06:24.546Z,23.00
2023-03-30T15:09:17.089Z,22.29
2023-03-30T15:12:03.629Z,21.68
2023-03-30T15:14:51.005Z,21.27
2023-03-30T15:17:39.633Z,20.88
2023-03-30T15:20:27.461Z,20.58
2023-03-30T15:23:13.978Z,20.28
2023-03-30T15:26:02.118Z,20.03
2023-03-30T15:28:53.716Z,19.77
2023-03-30T15:31:39.679Z,19.53
2023-03-30T15:34:35.409Z,19.35
2023-03-30T15:37:34.982Z,19.24
2023-03-30T15:40:28.629Z,19.09
2023-03-30T15:43:30.572Z,18.99
2023-03-30T15:46:16.599Z,18.92
2023-03-30T15:49:02.487Z,18.91
2023-03-30T15:51:52.096Z,18.94
2023-03-30T15:54:41.742Z,18.95
2023-03-30T15:57:31.176Z,18.96
2023-03-30T16:00:26.102Z,18.89
2023-03-30T16:03:13.076Z,18.83
2023-03-30T16:05:59.105Z,18.76
2023-03-30T16:08:45.307Z,18.61
2023-03-30T16:11:31.284Z,18.43
2023-03-30T16:14:22.618Z,18.23
2023-03-30T16:17:10.561Z,18.09
2023-03-30T16:19:56.340Z,17.94
2023-03-30T16:22:42.083Z,17.81
2023-03-30T16:28:18.028Z,17.59
2023-03-30T16:31:08.027Z,17.51
2023-03-30T16:33:53.784Z,17.44
2023-03-30T16:36:40.280Z,17.38
2023-03-30T16:39:28.014Z,17.29
2023-03-30T16:42:14.162Z,17.21
2023-03-30T16:44:59.801Z,17.08
2023-03-30T16:47:45.672Z,17.05
2023-03-30T16:50:57.790Z,16.96
2023-03-30T16:53:43.968Z,16.88
2023-03-30T16:56:30.271Z,16.73
2023-03-30T16:59:24.735Z,16.62
2023-03-30T17:02:14.547Z,16.53
2023-03-30T17:05:03.002Z,16.44
2023-03-30T17:07:48.936Z,16.38
2023-03-30T17:10:39.379Z,16.27
2023-03-30T17:13:25.209Z,16.20
2023-03-30T17:16:13.022Z,16.12
2023-03-30T17:18:58.884Z,16.02
2023-03-30T17:21:46.156Z,15.98
2023-03-30T17:24:32.244Z,15.93
2023-03-30T17:27:18.415Z,15.90
2023-03-30T17:30:05.426Z,15.85
2023-03-30T17:32:51.703Z,15.78
2023-03-30T17:35:38.478Z,15.72
2023-03-30T17:38:24.609Z,15.63
2023-03-30T17:41:15.468Z,15.55
2023-03-30T17:44:01.421Z,15.46
2023-03-30T17:46:47.057Z,15.36
2023-03-30T17:49:41.203Z,15.25
2023-03-30T17:52:30.348Z,15.14
2023-03-30T17:55:17.536Z,15.09
2023-03-30T17:58:03.694Z,15.01
2023-03-30T18:00:50.296Z,14.99
2023-03-30T18:03:38.590Z,14.94
2023-03-30T18:06:25.194Z,14.90
2023-03-30T18:09:18.203Z,14.84
2023-03-30T18:12:07.572Z,14.82
2023-03-30T18:14:57.792Z,14.78
2023-03-30T18:17:43.888Z,14.75
2023-03-30T18:20:33.765Z,14.69
2023-03-30T18:23:20.155Z,14.66
2023-03-30T18:26:09.429Z,14.61
2023-03-30T18:29:20.378Z,14.53
2023-03-30T18:32:14.675Z,14.49
2023-03-30T18:35:02.549Z,14.44
2023-03-30T18:37:49.182Z,14.39
2023-03-30T18:40:41.629Z,14.31
2023-03-30T18:43:28.404Z,14.25
2023-03-30T18:46:14.956Z,14.25
2023-03-30T18:49:00.938Z,14.22
2023-03-30T18:51:48.975Z,14.21
2023-03-30T18:54:40.645Z,14.15
2023-03-30T18:57:27.181Z,14.12
2023-03-30T19:00:18.330Z,14.05
2023-03-30T19:03:04.161Z,13.94
2023-03-30T19:05:51.088Z,13.87
2023-03-30T19:08:37.220Z,13.83
2023-03-30T19:11:24.120Z,13.80
2023-03-30T19:14:12.170Z,13.73
2023-03-30T19:17:01.749Z,13.74
2023-03-30T19:19:47.871Z,13.71
2023-03-30T19:22:36.726Z,13.71
2023-03-30T19:25:23.756Z,13.69
2023-03-30T19:28:10.515Z,13.63
2023-03-30T19:30:56.383Z,13.53
2023-03-30T19:33:42.533Z,13.50
2023-03-30T19:36:28.336Z,13.43
2023-03-30T19:39:14.322Z,13.34
2023-03-30T19:42:00.238Z,13.31
2023-03-30T19:44:46.520Z,13.28
2023-03-30T19:47:34.781Z,13.28
2023-03-30T19:50:23.402Z,13.27
2023-03-30T19:53:09.478Z,13.27
2023-03-30T19:55:55.429Z,13.28
2023-03-30T19:58:41.189Z,13.26
2023-03-30T20:01:27.324Z,13.26
2023-03-30T20:04:13.985Z,13.20
2023-03-30T20:07:01.391Z,13.17
2023-03-30T20:09:47.602Z,13.15
2023-03-30T20:12:34.661Z,13.10
2023-03-30T20:15:26.073Z,13.09
2023-03-30T20:18:18.457Z,13.06
2023-03-30T20:21:04.774Z,13.02
2023-03-30T20:23:50.887Z,12.95
2023-03-30T20:26:37.119Z,12.90
2023-03-30T20:29:23.058Z,12.91
2023-03-30T20:32:08.726Z,12.87
2023-03-30T20:34:55.081Z,12.89
2023-03-30T20:37:41.553Z,12.92
2023-03-30T20:40:27.483Z,12.91
2023-03-30T20:43:13.327Z,12.91
2023-03-30T20:46:10.410Z,12.90
2023-03-30T20:49:02.080Z,12.89
2023-03-30T20:51:50.769Z,12.86
2023-03-30T20:54:37.759Z,12.84
2023-03-30T20:57:24.540Z,12.81
2023-03-30T21:00:12.687Z,12.79
2023-03-30T21:02:58.650Z,12.76
2023-03-30T21:05:44.407Z,12.76
2023-03-30T21:08:31.622Z,12.78
2023-03-30T21:11:17.996Z,12.83
2023-03-30T21:14:04.045Z,12.82
2023-03-30T21:16:50.125Z,12.82
2023-03-30T21:19:36.805Z,12.86
2023-03-30T21:22:23.071Z,12.87
2023-03-30T21:25:09.479Z,12.90
2023-03-30T21:27:55.630Z,12.88
2023-03-30T21:30:41.540Z,12.91
2023-03-30T21:33:29.469Z,12.90
2023-03-30T21:36:15.354Z,12.89
2023-03-30T21:39:01.441Z,12.86
2023-03-30T21:41:47.511Z,12.85
2023-03-30T21:44:36.410Z,12.82
2023-03-30T21:47:22.323Z,12.80
2023-03-30T21:50:08.585Z,12.81
2023-03-30T21:52:58.215Z,12.77
2023-03-30T21:55:54.024Z,12.73
2023-03-30T21:59:13.300Z,12.76
2023-03-30T22:01:59.682Z,12.76
2023-03-30T22:04:49.215Z,12.80
2023-03-30T22:07:34.929Z,12.78
2023-03-30T22:10:21.502Z,12.80
2023-03-30T22:13:07.853Z,12.81
2023-03-30T22:16:03.842Z,12.82
2023-03-30T22:18:50.828Z,12.85
2023-03-30T22:21:37.378Z,12.86
2023-03-30T22:24:23.007Z,12.86
2023-03-30T22:27:11.350Z,12.83
2023-03-30T22:29:57.286Z,12.80
2023-03-30T22:32:43.213Z,12.81
2023-03-30T22:35:29.708Z,12.80
2023-03-30T22:38:16.321Z,12.76
2023-03-30T22:41:07.855Z,12.77
2023-03-30T22:43:56.669Z,12.79
2023-03-30T22:46:42.726Z,12.79
2023-03-30T22:49:30.287Z,12.80
2023-03-30T22:52:16.273Z,12.78
2023-03-30T22:55:02.030Z,12.79
2023-03-30T22:57:48.126Z,12.77
2023-03-30T23:00:34.075Z,12.69
2023-03-30T23:03:20.490Z,12.71
2023-03-30T23:06:08.167Z,12.68
2023-03-30T23:08:54.623Z,12.65
2023-03-30T23:11:46.463Z,12.60
2023-03-30T23:14:32.590Z,12.52
2023-03-30T23:17:18.347Z,12.55
2023-03-30T23:20:10.658Z,12.53
2023-03-30T23:22:56.925Z,12.53
2023-03-30T23:26:08.418Z,12.53
2023-03-30T23:28:56.296Z,12.56
2023-03-30T23:31:43.848Z,12.53
2023-03-30T23:34:29.964Z,12.55
2023-03-30T23:37:15.702Z,12.50
2023-03-30T23:40:07.919Z,12.50
2023-03-30T23:42:54.533Z,12.48
2023-03-30T23:45:42.735Z,12.44
2023-03-30T23:48:28.510Z,12.39
2023-03-30T23:51:14.378Z,12.35
2023-03-30T23:54:06.262Z,12.31
2023-03-30T23:56:57.731Z,12.22
2023-03-30T23:59:43.650Z,12.20
